createdAt,value
2023-09-27T00:00:48.294Z,28.30
2023-09-27T00:03:14.891Z,30.83
2023-09-27T00:05:41.887Z,28.98
2023-09-27T00:08:09.071Z,31.88
2023-09-27T00:10:35.999Z,29.95
2023-09-27T00:13:03.699Z,29.60
2023-09-27T00:15:31.055Z,31.23
2023-09-27T00:17:57.622Z,29.48
2023-09-27T00:20:24.252Z,30.08
2023-09-27T00:22:50.825Z,28.98
2023-09-27T00:25:17.487Z,30.25
2023-09-27T00:27:44.134Z,26.50
2023-09-27T00:30:15.129Z,27.77
2023-09-27T00:32:43.343Z,33.45
2023-09-27T00:35:13.463Z,30.80
2023-09-27T00:37:40.144Z,33.20
2023-09-27T00:40:11.877Z,31.17
2023-09-27T00:42:38.475Z,28.88
2023-09-27T00:45:06.084Z,29.92
2023-09-27T00:47:33.795Z,29.73
2023-09-27T00:50:00.594Z,29.35
2023-09-27T00:52:27.436Z,30.05
2023-09-27T00:54:54.447Z,26.30
2023-09-27T00:57:21.756Z,29.23
2023-09-27T00:59:48.501Z,29.73
2023-09-27T01:02:15.465Z,28.65
2023-09-27T01:04:42.189Z,28.00
2023-09-27T01:07:09.230Z,29.42
2023-09-27T01:09:36.265Z,30.52
2023-09-27T01:12:05.441Z,28.33
2023-09-27T01:14:32.111Z,29.80
2023-09-27T01:17:11.355Z,30.75
2023-09-27T01:19:39.732Z,31.35
2023-09-27T01:22:06.304Z,31.02
2023-09-27T01:24:37.067Z,30.45
2023-09-27T01:27:06.666Z,30.27
2023-09-27T01:29:34.369Z,31.73
2023-09-27T01:32:01.106Z,30.13
2023-09-27T01:34:27.762Z,30.10
2023-09-27T01:36:55.514Z,29.58
2023-09-27T01:39:22.333Z,32.33
2023-09-27T01:41:48.926Z,34.72
2023-09-27T01:44:15.595Z,28.92
2023-09-27T01:46:42.263Z,29.70
2023-09-27T01:49:08.815Z,30.73
2023-09-27T01:51:35.609Z,26.60
2023-09-27T01:54:03.550Z,28.05
2023-09-27T01:56:30.223Z,27.80
2023-09-27T01:58:56.980Z,27.52
2023-09-27T02:01:23.598Z,30.08
2023-09-27T02:03:50.299Z,31.65
2023-09-27T02:06:16.942Z,29.30
2023-09-27T02:08:43.680Z,29.02
2023-09-27T02:11:10.786Z,31.25
2023-09-27T02:13:37.346Z,31.00
2023-09-27T02:16:04.012Z,28.67
2023-09-27T02:18:30.637Z,30.02
2023-09-27T02:20:57.169Z,28.02
2023-09-27T02:23:23.893Z,30.33
2023-09-27T02:25:59.991Z,35.10
2023-09-27T02:28:26.660Z,33.20
2023-09-27T02:30:53.187Z,35.63
2023-09-27T02:33:21.457Z,44.33
2023-09-27T02:35:47.960Z,40.88
2023-09-27T02:38:15.241Z,39.88
2023-09-27T02:40:43.300Z,42.03
2023-09-27T02:43:09.849Z,43.58
2023-09-27T02:45:36.452Z,40.42
2023-09-27T02:48:03.341Z,40.42
2023-09-27T02:50:30.081Z,37.20
2023-09-27T02:52:56.773Z,43.70
2023-09-27T02:55:23.414Z,42.30
2023-09-27T02:57:55.013Z,39.88
2023-09-27T03:00:22.637Z,37.97
2023-09-27T03:02:49.368Z,39.83
2023-09-27T03:05:16.370Z,42.17
2023-09-27T03:07:46.261Z,42.22
2023-09-27T03:10:13.216Z,53.40
2023-09-27T03:12:41.034Z,45.53
2023-09-27T03:15:13.838Z,54.00
2023-09-27T03:17:42.092Z,76.18
2023-09-27T03:20:17.306Z,59.58
2023-09-27T03:22:44.826Z,60.08
2023-09-27T03:25:11.540Z,56.88
2023-09-27T03:27:38.356Z,52.13
2023-09-27T03:30:08.497Z,53.78
2023-09-27T03:32:35.277Z,54.42
2023-09-27T03:35:01.957Z,46.22
2023-09-27T03:37:28.538Z,56.30
2023-09-27T03:39:56.932Z,52.60
2023-09-27T03:42:23.834Z,60.65
2023-09-27T03:44:51.132Z,79.68
2023-09-27T03:47:18.011Z,56.63
2023-09-27T03:49:44.780Z,56.28
2023-09-27T03:52:11.402Z,62.28
2023-09-27T03:54:38.063Z,66.72
2023-09-27T03:57:05.135Z,49.00
2023-09-27T03:59:31.697Z,44.33
2023-09-27T04:01:58.369Z,53.97
2023-09-27T04:04:25.517Z,53.13
2023-09-27T04:06:52.754Z,44.20
2023-09-27T04:09:19.318Z,42.45
2023-09-27T04:11:45.868Z,37.65
2023-09-27T04:14:12.760Z,35.97
2023-09-27T04:16:39.502Z,32.45
2023-09-27T04:19:06.134Z,38.58
2023-09-27T04:21:32.681Z,38.45
2023-09-27T04:24:00.768Z,39.22
2023-09-27T04:26:28.171Z,38.70
2023-09-27T04:28:55.278Z,34.47
2023-09-27T04:31:22.163Z,34.63
2023-09-27T04:33:49.183Z,40.78
2023-09-27T04:36:19.299Z,37.45
2023-09-27T04:38:46.810Z,39.85
2023-09-27T04:41:18.069Z,65.63
2023-09-27T04:43:45.923Z,52.20
2023-09-27T04:46:17.552Z,72.25
2023-09-27T04:48:47.329Z,45.80
2023-09-27T04:51:13.924Z,44.85
2023-09-27T04:53:40.703Z,55.15
2023-09-27T04:56:08.669Z,38.63
2023-09-27T04:58:36.997Z,41.35
2023-09-27T05:01:07.033Z,35.67
2023-09-27T05:03:33.961Z,36.85
2023-09-27T05:06:00.562Z,38.08
2023-09-27T05:08:30.552Z,38.88
2023-09-27T05:10:57.485Z,42.15
2023-09-27T05:13:24.480Z,39.38
2023-09-27T05:15:54.267Z,50.00
2023-09-27T05:18:23.911Z,53.17
2023-09-27T05:20:50.718Z,43.10
2023-09-27T05:23:17.596Z,46.03
2023-09-27T05:25:45.337Z,43.72
2023-09-27T05:28:12.052Z,46.58
2023-09-27T05:30:38.640Z,52.20
2023-09-27T05:33:09.007Z,43.95
2023-09-27T05:35:35.724Z,37.13
2023-09-27T05:38:02.385Z,37.72
2023-09-27T05:40:29.172Z,35.60
2023-09-27T05:42:56.905Z,36.50
2023-09-27T05:45:24.143Z,33.38
2023-09-27T05:47:50.832Z,33.38
2023-09-27T05:50:17.561Z,33.15
2023-09-27T05:52:47.574Z,33.17
2023-09-27T05:55:16.659Z,34.42
2023-09-27T05:57:43.700Z,36.88
2023-09-27T06:00:20.526Z,35.42
2023-09-27T06:02:48.490Z,36.85
2023-09-27T06:05:15.276Z,37.05
2023-09-27T06:07:41.926Z,38.10
2023-09-27T06:10:10.001Z,41.15
2023-09-27T06:12:36.552Z,38.78
2023-09-27T06:15:03.393Z,36.08
2023-09-27T06:17:30.241Z,36.10
2023-09-27T06:19:57.243Z,35.75
2023-09-27T06:22:24.145Z,34.30
2023-09-27T06:24:50.909Z,36.45
2023-09-27T06:27:18.021Z,35.08
2023-09-27T06:29:44.785Z,32.45
2023-09-27T06:32:11.645Z,35.65
2023-09-27T06:34:38.309Z,32.22
2023-09-27T06:37:04.894Z,30.77
2023-09-27T06:39:32.133Z,33.47
2023-09-27T06:41:59.372Z,31.52
2023-09-27T06:44:26.058Z,34.83
2023-09-27T06:46:53.470Z,33.15
2023-09-27T06:49:20.400Z,32.65
2023-09-27T06:51:47.015Z,33.78
2023-09-27T06:54:13.672Z,34.38
2023-09-27T06:56:41.720Z,36.38
2023-09-27T06:59:08.982Z,36.38
2023-09-27T07:01:35.948Z,42.45
2023-09-27T07:04:04.986Z,38.95
2023-09-27T07:06:31.718Z,34.15
2023-09-27T07:08:59.129Z,31.08
2023-09-27T07:11:26.157Z,31.35
2023-09-27T07:13:53.136Z,27.35
2023-09-27T07:16:28.156Z,24.55
2023-09-27T07:18:57.443Z,20.58
2023-09-27T07:21:26.099Z,19.83
2023-09-27T07:23:53.529Z,20.63
2023-09-27T07:26:20.885Z,19.80
2023-09-27T07:28:47.593Z,21.60
2023-09-27T07:31:18.304Z,18.27
2023-09-27T07:33:46.419Z,17.42
2023-09-27T07:36:13.263Z,16.98
2023-09-27T07:38:40.907Z,15.80
2023-09-27T07:41:10.132Z,15.32
2023-09-27T07:43:37.424Z,16.33
2023-09-27T07:46:07.853Z,15.25
2023-09-27T07:48:39.181Z,17.75
2023-09-27T07:51:13.301Z,16.23
2023-09-27T07:53:40.730Z,16.90
2023-09-27T07:56:10.642Z,17.05
2023-09-27T07:58:38.365Z,16.35
2023-09-27T08:01:05.961Z,17.65
2023-09-27T08:03:32.959Z,18.60
2023-09-27T08:05:59.864Z,18.40
2023-09-27T08:08:26.628Z,16.38
2023-09-27T08:10:53.987Z,15.82
2023-09-27T08:13:20.785Z,16.42
2023-09-27T08:15:50.389Z,18.30
2023-09-27T08:18:17.894Z,15.70
2023-09-27T08:20:44.782Z,18.50
2023-09-27T08:23:12.215Z,16.48
2023-09-27T08:25:39.421Z,17.38
2023-09-27T08:28:07.674Z,17.30
2023-09-27T08:30:34.752Z,17.83
2023-09-27T08:33:02.239Z,15.60
2023-09-27T08:35:29.591Z,17.05
2023-09-27T08:37:56.152Z,16.58
2023-09-27T08:40:22.912Z,14.70
2023-09-27T08:42:53.223Z,15.27
2023-09-27T08:45:20.802Z,15.80
2023-09-27T08:47:47.667Z,15.15
2023-09-27T08:50:17.434Z,19.73
2023-09-27T08:52:48.895Z,19.10
2023-09-27T08:55:17.182Z,18.00
2023-09-27T08:57:47.305Z,14.43
2023-09-27T09:00:21.154Z,14.10
2023-09-27T09:02:58.013Z,16.27
2023-09-27T09:05:27.578Z,17.33
2023-09-27T09:07:56.823Z,13.73
2023-09-27T09:10:26.462Z,16.00
2023-09-27T09:12:53.346Z,12.93
2023-09-27T09:15:30.793Z,14.05
2023-09-27T09:18:00.536Z,11.73
2023-09-27T09:20:34.272Z,14.02
2023-09-27T09:23:13.599Z,12.88
2023-09-27T09:25:45.100Z,12.88
2023-09-27T09:28:14.531Z,14.02
2023-09-27T09:30:41.949Z,15.47
2023-09-27T09:33:17.918Z,14.35
2023-09-27T09:35:44.804Z,12.65
2023-09-27T09:38:11.788Z,17.45
2023-09-27T09:41:01.994Z,12.15
2023-09-27T09:43:34.759Z,14.07
2023-09-27T09:46:04.865Z,12.60
2023-09-27T09:48:34.500Z,14.02
2023-09-27T09:51:08.849Z,12.25
2023-09-27T09:53:39.911Z,13.43
2023-09-27T09:58:48.293Z,12.82
2023-09-27T10:01:21.067Z,13.15
2023-09-27T10:03:50.985Z,13.45
2023-09-27T10:06:26.403Z,13.93
2023-09-27T10:09:02.243Z,12.00
2023-09-27T10:11:30.930Z,12.82
2023-09-27T10:13:58.249Z,15.05
2023-09-27T10:16:25.641Z,14.07
2023-09-27T10:18:55.268Z,12.65
2023-09-27T10:21:21.975Z,14.07
2023-09-27T10:23:48.994Z,11.43
2023-09-27T10:26:27.609Z,16.50
2023-09-27T10:29:11.657Z,12.30
2023-09-27T10:31:58.371Z,14.02
2023-09-27T10:34:31.522Z,12.13
2023-09-27T10:37:15.027Z,14.32
2023-09-27T10:40:20.843Z,14.80
2023-09-27T10:42:48.234Z,12.98
2023-09-27T10:45:16.156Z,14.50
2023-09-27T10:47:42.794Z,12.98
2023-09-27T10:50:11.672Z,11.35
2023-09-27T10:52:39.966Z,12.48
2023-09-27T10:55:14.193Z,12.93
2023-09-27T10:57:42.735Z,12.40
2023-09-27T11:00:13.079Z,17.00
2023-09-27T11:02:40.121Z,13.23
2023-09-27T11:05:08.220Z,15.27
2023-09-27T11:07:49.511Z,13.05
2023-09-27T11:10:33.141Z,12.35
2023-09-27T11:13:11.164Z,11.93
2023-09-27T11:15:39.366Z,11.00
2023-09-27T11:18:07.429Z,15.50
2023-09-27T11:20:34.416Z,11.77
2023-09-27T11:23:02.996Z,12.85
2023-09-27T11:25:34.453Z,13.50
2023-09-27T11:28:01.110Z,12.35
2023-09-27T11:30:31.640Z,11.93
2023-09-27T11:33:06.553Z,10.82
2023-09-27T11:35:33.475Z,13.10
2023-09-27T11:38:13.990Z,11.90
2023-09-27T11:40:44.424Z,11.27
2023-09-27T11:43:13.258Z,12.00
2023-09-27T11:45:47.392Z,12.90
2023-09-27T11:48:14.985Z,10.50
2023-09-27T11:50:42.072Z,10.37
2023-09-27T11:53:09.056Z,15.85
2023-09-27T11:55:36.605Z,11.80
2023-09-27T11:58:03.267Z,11.20
2023-09-27T12:00:30.162Z,11.15
2023-09-27T12:02:58.402Z,10.13
2023-09-27T12:05:26.178Z,10.85
2023-09-27T12:07:53.849Z,11.65
2023-09-27T12:10:20.597Z,10.88
2023-09-27T12:12:47.278Z,13.43
2023-09-27T12:15:13.893Z,11.70
2023-09-27T12:17:40.763Z,9.15
2023-09-27T12:20:15.737Z,11.52
2023-09-27T12:22:49.919Z,11.38
2023-09-27T12:25:16.476Z,10.23
2023-09-27T12:27:42.949Z,12.97
2023-09-27T12:30:10.023Z,10.77
2023-09-27T12:32:36.633Z,12.43
2023-09-27T12:35:04.168Z,12.35
2023-09-27T12:37:30.954Z,9.30
2023-09-27T12:39:57.638Z,12.53
2023-09-27T12:42:24.621Z,11.77
2023-09-27T12:44:51.191Z,9.30
2023-09-27T12:47:18.811Z,10.15
2023-09-27T12:49:45.409Z,9.52
2023-09-27T12:52:11.949Z,11.57
2023-09-27T12:54:38.544Z,14.75
2023-09-27T12:57:05.077Z,10.77
2023-09-27T12:59:31.699Z,9.95
2023-09-27T13:01:58.417Z,16.92
2023-09-27T13:04:25.142Z,11.43
2023-09-27T13:06:52.623Z,10.73
2023-09-27T13:09:19.219Z,11.90
2023-09-27T13:11:45.879Z,11.63
2023-09-27T13:14:12.754Z,10.02
2023-09-27T13:16:39.288Z,10.90
2023-09-27T13:19:06.332Z,12.27
2023-09-27T13:21:32.892Z,11.50
2023-09-27T13:23:59.409Z,10.57
2023-09-27T13:26:27.257Z,10.90
2023-09-27T13:28:54.144Z,9.48
2023-09-27T13:31:20.942Z,12.95
2023-09-27T13:33:58.950Z,15.23
2023-09-27T13:36:38.094Z,11.82
2023-09-27T13:39:06.868Z,12.20
2023-09-27T13:41:43.794Z,12.43
2023-09-27T13:44:11.942Z,15.82
2023-09-27T13:46:38.790Z,10.98
2023-09-27T13:49:05.933Z,10.90
2023-09-27T13:51:35.943Z,13.65
2023-09-27T13:54:06.376Z,10.93
2023-09-27T13:56:33.499Z,11.63
2023-09-27T13:59:00.478Z,12.77
2023-09-27T14:01:28.148Z,11.45
2023-09-27T14:03:54.805Z,10.68
2023-09-27T14:06:21.617Z,9.63
2023-09-27T14:08:51.002Z,10.18
2023-09-27T14:11:18.746Z,9.68
2023-09-27T14:13:49.188Z,14.55
2023-09-27T14:16:19.186Z,9.98
2023-09-27T14:18:46.209Z,11.85
2023-09-27T14:21:14.399Z,11.60
2023-09-27T14:23:43.323Z,12.23
2023-09-27T14:26:10.386Z,10.73
2023-09-27T14:28:37.023Z,13.27
2023-09-27T14:31:03.672Z,12.90
2023-09-27T14:33:30.305Z,11.82
2023-09-27T14:35:57.666Z,10.05
2023-09-27T14:38:24.324Z,10.45
2023-09-27T14:40:50.978Z,11.60
2023-09-27T14:43:17.716Z,15.32
2023-09-27T14:45:44.409Z,12.73
2023-09-27T14:48:11.502Z,11.30
2023-09-27T14:50:38.274Z,12.00
2023-09-27T14:53:04.965Z,11.85
2023-09-27T14:55:31.613Z,10.45
2023-09-27T14:57:59.605Z,11.48
2023-09-27T15:00:26.695Z,11.82
2023-09-27T15:02:57.137Z,12.57
2023-09-27T15:05:24.235Z,13.05
2023-09-27T15:07:51.029Z,12.70
2023-09-27T15:10:17.788Z,13.27
2023-09-27T15:12:44.399Z,13.00
2023-09-27T15:15:12.703Z,13.57
2023-09-27T15:17:43.447Z,12.95
2023-09-27T15:20:12.432Z,11.20
2023-09-27T15:22:42.349Z,13.52
2023-09-27T15:25:10.614Z,14.30
2023-09-27T15:27:37.290Z,14.90
2023-09-27T15:30:04.324Z,14.52
2023-09-27T15:32:31.017Z,13.93
2023-09-27T15:34:58.001Z,14.45
2023-09-27T15:37:24.678Z,13.23
2023-09-27T15:39:51.238Z,14.60
2023-09-27T15:42:17.845Z,15.77
2023-09-27T15:44:44.364Z,11.93
2023-09-27T15:47:14.150Z,12.05
2023-09-27T15:49:40.765Z,16.77
2023-09-27T15:52:07.379Z,13.23
2023-09-27T15:54:34.512Z,13.18
2023-09-27T15:57:01.182Z,14.02
2023-09-27T15:59:28.170Z,15.65
2023-09-27T16:01:57.569Z,13.70
2023-09-27T16:04:24.750Z,15.27
2023-09-27T16:06:52.975Z,14.45
2023-09-27T16:09:19.626Z,14.95
2023-09-27T16:11:46.500Z,14.63
2023-09-27T16:14:13.229Z,13.73
2023-09-27T16:16:39.956Z,14.38
2023-09-27T16:19:07.127Z,16.25
2023-09-27T16:21:33.711Z,14.40
2023-09-27T16:24:01.428Z,14.98
2023-09-27T16:26:28.395Z,15.73
2023-09-27T16:28:54.975Z,15.38
2023-09-27T16:31:22.364Z,17.33
2023-09-27T16:33:49.225Z,15.68
2023-09-27T16:36:18.990Z,16.63
2023-09-27T16:38:45.679Z,15.25
2023-09-27T16:41:12.219Z,16.48
2023-09-27T16:43:40.799Z,15.60
2023-09-27T16:46:08.403Z,13.52
2023-09-27T16:48:36.009Z,16.48
2023-09-27T16:51:03.149Z,15.77
2023-09-27T16:53:30.077Z,14.65
2023-09-27T16:55:56.697Z,15.05
2023-09-27T16:58:26.700Z,17.55
2023-09-27T17:00:53.607Z,19.05
2023-09-27T17:03:20.760Z,16.95
2023-09-27T17:05:47.796Z,16.83
2023-09-27T17:08:14.524Z,18.00
2023-09-27T17:10:41.662Z,17.75
2023-09-27T17:13:09.346Z,17.02
2023-09-27T17:15:35.999Z,18.95
2023-09-27T17:18:02.579Z,21.02
2023-09-27T17:20:29.228Z,21.13
2023-09-27T17:22:56.055Z,21.27
2023-09-27T17:25:22.735Z,17.92
2023-09-27T17:27:49.390Z,19.33
2023-09-27T17:30:16.704Z,18.70
2023-09-27T17:32:44.204Z,18.05
2023-09-27T17:35:11.315Z,19.10
2023-09-27T17:37:38.205Z,19.05
2023-09-27T17:40:09.083Z,19.67
2023-09-27T17:42:36.701Z,21.15
2023-09-27T17:45:04.346Z,19.00
2023-09-27T17:47:31.096Z,16.13
2023-09-27T17:49:57.812Z,19.80
2023-09-27T17:52:24.464Z,17.83
2023-09-27T17:54:51.002Z,18.02
2023-09-27T17:57:18.476Z,18.17
2023-09-27T17:59:46.566Z,21.58
2023-09-27T18:02:13.238Z,21.90
2023-09-27T18:04:40.102Z,18.85
2023-09-27T18:07:06.747Z,22.02
2023-09-27T18:09:37.135Z,19.58
2023-09-27T18:12:05.616Z,20.40
2023-09-27T18:14:32.258Z,22.00
2023-09-27T18:16:59.171Z,21.70
2023-09-27T18:19:25.954Z,25.58
2023-09-27T18:21:52.708Z,26.55
2023-09-27T18:24:19.235Z,24.05
2023-09-27T18:26:45.821Z,23.30
2023-09-27T18:29:12.407Z,21.63
2023-09-27T18:31:40.321Z,21.10
2023-09-27T18:34:07.040Z,21.77
2023-09-27T18:36:34.249Z,22.75
2023-09-27T18:39:01.304Z,20.33
2023-09-27T18:41:28.579Z,22.35
2023-09-27T18:43:55.664Z,21.58
2023-09-27T18:46:22.794Z,24.08
2023-09-27T18:48:51.574Z,19.63
2023-09-27T18:51:22.353Z,21.67
2023-09-27T18:53:50.538Z,24.40
2023-09-27T18:56:17.225Z,22.15
2023-09-27T18:58:43.825Z,23.63
2023-09-27T19:01:10.393Z,22.05
2023-09-27T19:03:36.979Z,23.10
2023-09-27T19:06:03.680Z,22.30
2023-09-27T19:08:30.226Z,23.83
2023-09-27T19:10:56.826Z,21.08
2023-09-27T19:13:23.425Z,24.27
2023-09-27T19:15:50.098Z,23.90
2023-09-27T19:18:16.636Z,26.85
2023-09-27T19:20:43.208Z,25.00
2023-09-27T19:23:09.796Z,25.83
2023-09-27T19:25:36.431Z,26.05
2023-09-27T19:28:03.550Z,25.13
2023-09-27T19:30:32.596Z,25.15
2023-09-27T19:32:59.254Z,26.30
2023-09-27T19:35:28.020Z,24.58
2023-09-27T19:37:54.619Z,23.58
2023-09-27T19:40:23.005Z,22.08
2023-09-27T19:42:49.808Z,26.58
2023-09-27T19:45:16.741Z,24.23
2023-09-27T19:47:44.416Z,25.58
2023-09-27T19:50:12.548Z,25.40
2023-09-27T19:52:39.243Z,23.85
2023-09-27T19:55:08.591Z,23.27
2023-09-27T19:57:35.221Z,22.98
2023-09-27T20:00:04.564Z,24.45
2023-09-27T20:02:32.516Z,23.08
2023-09-27T20:04:59.066Z,25.50
2023-09-27T20:07:25.647Z,22.73
2023-09-27T20:09:52.483Z,20.83
2023-09-27T20:12:19.056Z,23.50
2023-09-27T20:14:45.763Z,21.35
2023-09-27T20:17:12.540Z,23.98
2023-09-27T20:19:39.178Z,23.52
2023-09-27T20:22:05.757Z,22.63
2023-09-27T20:24:32.409Z,22.25
2023-09-27T20:26:59.615Z,21.45
2023-09-27T20:29:26.180Z,24.52
2023-09-27T20:31:52.697Z,20.52
2023-09-27T20:34:19.409Z,23.25
2023-09-27T20:36:45.961Z,21.80
2023-09-27T20:39:12.576Z,21.05
2023-09-27T20:41:39.281Z,22.45
2023-09-27T20:44:06.727Z,21.48
2023-09-27T20:46:33.553Z,26.67
2023-09-27T20:49:01.087Z,22.38
2023-09-27T20:51:27.847Z,25.02
2023-09-27T20:53:55.309Z,25.15
2023-09-27T20:56:22.255Z,23.63
2023-09-27T20:58:49.376Z,22.83
2023-09-27T21:01:30.733Z,22.42
2023-09-27T21:04:00.132Z,22.92
2023-09-27T21:06:31.100Z,21.75
2023-09-27T21:08:58.947Z,21.40
2023-09-27T21:11:25.814Z,24.30
2023-09-27T21:13:58.342Z,23.52
2023-09-27T21:16:26.483Z,25.73
2023-09-27T21:18:54.098Z,26.67
2023-09-27T21:21:23.136Z,24.20
2023-09-27T21:23:50.060Z,22.10
2023-09-27T21:26:17.062Z,23.80
2023-09-27T21:28:44.507Z,24.45
2023-09-27T21:31:14.556Z,22.38
2023-09-27T21:33:44.421Z,24.05
2023-09-27T21:36:11.330Z,24.25
2023-09-27T21:38:38.094Z,24.30
2023-09-27T21:41:04.984Z,22.63
2023-09-27T21:43:33.749Z,23.30
2023-09-27T21:46:00.905Z,23.38
2023-09-27T21:48:27.849Z,22.95
2023-09-27T21:50:54.527Z,21.92
2023-09-27T21:53:21.121Z,23.23
2023-09-27T21:55:47.720Z,22.98
2023-09-27T21:58:14.319Z,23.13
2023-09-27T22:00:40.850Z,24.17
2023-09-27T22:03:09.292Z,25.50
2023-09-27T22:05:36.093Z,26.83
2023-09-27T22:08:02.903Z,26.27
2023-09-27T22:10:35.383Z,26.40
2023-09-27T22:13:22.360Z,24.77
2023-09-27T22:15:55.858Z,25.88
2023-09-27T22:18:23.764Z,24.38
2023-09-27T22:20:50.839Z,26.17
2023-09-27T22:23:32.548Z,26.00
2023-09-27T22:26:07.469Z,26.35
2023-09-27T22:28:35.871Z,26.30
2023-09-27T22:31:02.935Z,24.63
2023-09-27T22:33:34.386Z,25.90
2023-09-27T22:36:02.136Z,25.55
2023-09-27T22:38:32.617Z,25.55
2023-09-27T22:41:03.594Z,27.52
2023-09-27T22:43:32.018Z,26.33
2023-09-27T22:46:00.155Z,27.48
2023-09-27T22:48:28.357Z,27.15
2023-09-27T22:51:00.483Z,27.08
2023-09-27T22:53:27.941Z,25.42
2023-09-27T22:56:00.218Z,27.42
2023-09-27T22:58:29.701Z,26.80
2023-09-27T23:00:59.130Z,27.73
2023-09-27T23:03:31.075Z,26.77
2023-09-27T23:05:58.552Z,27.27
2023-09-27T23:08:28.660Z,25.88
2023-09-27T23:10:58.006Z,26.25
2023-09-27T23:13:31.819Z,26.00
2023-09-27T23:16:24.587Z,26.85
2023-09-27T23:18:51.734Z,28.30
2023-09-27T23:21:25.104Z,26.92
2023-09-27T23:23:57.703Z,23.70
2023-09-27T23:26:46.678Z,29.80
2023-09-27T23:29:29.242Z,26.85
2023-09-27T23:31:58.701Z,27.88
2023-09-27T23:34:30.087Z,27.00
2023-09-27T23:37:11.968Z,28.00
2023-09-27T23:39:48.398Z,26.45
2023-09-27T23:42:24.868Z,30.40
2023-09-27T23:45:12.609Z,29.80
2023-09-27T23:47:51.173Z,25.98
2023-09-27T23:50:18.422Z,27.17
2023-09-27T23:52:47.212Z,27.45
2023-09-27T23:55:15.484Z,27.33
2023-09-27T23:57:42.696Z,28.63
